This is the latest recevied weather packets stored in our database for station/object KO4IDC-13. If no packets are shown the sender has not sent any weather packets the latest 1 day(s).
| Time | Temp. | Humidity | Pressure | Rain* | Wind** | Luminosity | Snow |
|---|---|---|---|---|---|---|---|
| 1778016667 | 16.67° C | 98% | 1009.3 hPa | 3.05 mm | 0.89 m/s, 205° | 30 W/m² | - |
| 1778016363 | 16.67° C | 97% | 1009.3 hPa | 3.05 mm | 0 m/s | 41 W/m² | - |
| 1778016066 | 16.11° C | 97% | 1009.3 hPa | 3.05 mm | 0.45 m/s, 207° | 37 W/m² | - |
| 1778015758 | 16.11° C | 97% | 1009.3 hPa | 3.05 mm | 0.89 m/s, 194° | 45 W/m² | - |
| 1778015455 | 16.11° C | 97% | 1009.4 hPa | 6.1 mm | 0.45 m/s, 170° | 50 W/m² | - |
| 1778015151 | 16.11° C | 97% | 1009.5 hPa | 9.65 mm | 1.34 m/s, 193° | 56 W/m² | - |
| 1778014849 | 16.11° C | 97% | 1009.5 hPa | 8.89 mm | 0.89 m/s, 209° | 42 W/m² | - |
| 1778014546 | 16.11° C | 97% | 1009.6 hPa | 6.1 mm | 0.45 m/s, 199° | 47 W/m² | - |
| 1778014244 | 16.11° C | 97% | 1009.5 hPa | 3.05 mm | 0.45 m/s, 167° | 64 W/m² | - |
| 1778013941 | 16.11° C | 97% | 1009.5 hPa | 1.78 mm | 0 m/s | 48 W/m² | - |
| 1778013638 | 16.11° C | 97% | 1009.5 hPa | 4.83 mm | 0.89 m/s, 160° | 47 W/m² | - |
| 1778013335 | 16.11° C | 97% | 1009.4 hPa | 14.99 mm | 0 m/s | 82 W/m² | - |
| 1778013032 | 16.11° C | 97% | 1009.3 hPa | 27.69 mm | 0.45 m/s, 191° | 80 W/m² | - |
| 1778012728 | 16.11° C | 97% | 1009.4 hPa | 21.59 mm | 1.34 m/s, 95° | 37 W/m² | - |
| 1778012424 | 16.11° C | 96% | 1009.6 hPa | 6.1 mm | 1.79 m/s, 155° | 21 W/m² | - |
| 1778012121 | 16.11° C | 96% | 1009.6 hPa | 3.05 mm | 0 m/s | 19 W/m² | - |
| 1778011818 | 16.11° C | 96% | 1009.6 hPa | 3.05 mm | 0.45 m/s, 213° | 24 W/m² | - |
| 1778011516 | 16.11° C | 96% | 1009.8 hPa | 4.32 mm | 1.34 m/s, 149° | 39 W/m² | - |
| 1778011213 | 16.11° C | 96% | 1009.8 hPa | 6.6 mm | 0.89 m/s, 167° | 80 W/m² | - |
| 1778010909 | 16.11° C | 96% | 1009.9 hPa | 7.87 mm | 0.45 m/s, 180° | 58 W/m² | - |
| 1778010607 | 16.11° C | 95% | 1010 hPa | 4.32 mm | 1.34 m/s, 176° | 108 W/m² | - |
| 1778010304 | 16.11° C | 95% | 1010 hPa | 0 mm | 0.89 m/s, 167° | 65 W/m² | - |
| 1778010004 | 16.11° C | 95% | 1010.2 hPa | 0 mm | 1.79 m/s, 152° | 43 W/m² | - |
| 1778009702 | 16.11° C | 95% | 1010.1 hPa | 0 mm | 2.24 m/s, 154° | 79 W/m² | - |
| 1778009399 | 16.11° C | 95% | 1010.2 hPa | 0 mm | 0.89 m/s, 157° | 120 W/m² | - |
* Rain latest hour (hover to see other rain measurements)
** Current wind speed in m/s (hover to see current wind gust speed)